createdAt,value
2023-04-26T00:00:32.077Z,5.64
2023-04-26T00:03:00.241Z,5.59
2023-04-26T00:05:28.531Z,5.59
2023-04-26T00:07:55.373Z,5.55
2023-04-26T00:10:22.263Z,5.54
2023-04-26T00:12:49.003Z,5.54
2023-04-26T00:15:15.776Z,5.55
2023-04-26T00:17:43.018Z,5.54
2023-04-26T00:20:13.043Z,5.48
2023-04-26T00:22:40.112Z,5.48
2023-04-26T00:40:35.631Z,5.40
2023-04-26T00:43:03.455Z,5.28
2023-04-26T00:45:30.583Z,5.33
2023-04-26T00:47:57.364Z,5.39
2023-04-26T00:50:24.614Z,5.38
2023-04-26T00:52:51.781Z,5.31
2023-04-26T00:55:18.939Z,5.28
2023-04-26T00:57:46.220Z,5.34
2023-04-26T01:00:13.782Z,5.38
2023-04-26T01:02:41.623Z,5.42
2023-04-26T01:05:09.525Z,5.42
2023-04-26T01:07:37.576Z,5.40
2023-04-26T01:10:10.100Z,5.43
2023-04-26T01:12:38.466Z,5.42
2023-04-26T01:15:05.929Z,5.39
2023-04-26T01:17:32.778Z,5.36
2023-04-26T01:19:59.500Z,5.40
2023-04-26T01:22:26.449Z,5.41
2023-04-26T01:24:55.241Z,5.41
2023-04-26T01:27:22.200Z,5.41
2023-04-26T01:29:48.933Z,5.39
2023-04-26T01:32:15.896Z,5.43
2023-04-26T01:34:42.568Z,5.36
2023-04-26T01:37:09.309Z,5.30
2023-04-26T01:39:36.755Z,5.40
2023-04-26T01:42:04.881Z,5.36
2023-04-26T01:44:31.945Z,5.46
2023-04-26T01:46:58.739Z,5.35
2023-04-26T01:49:25.460Z,5.35
2023-04-26T01:51:52.309Z,5.36
2023-04-26T01:54:19.165Z,5.30
2023-04-26T01:56:46.002Z,5.36
2023-04-26T01:59:12.834Z,5.37
2023-04-26T02:01:42.461Z,5.44
2023-04-26T02:04:09.702Z,5.47
2023-04-26T02:06:37.998Z,5.43
2023-04-26T02:09:05.365Z,5.43
2023-04-26T02:11:32.184Z,5.33
2023-04-26T02:13:58.977Z,5.28
2023-04-26T02:16:27.242Z,5.30
2023-04-26T02:18:54.266Z,5.30
2023-04-26T02:21:22.215Z,5.35
2023-04-26T02:23:48.950Z,5.35
2023-04-26T02:26:15.799Z,5.35
2023-04-26T02:28:42.719Z,5.36
2023-04-26T02:31:09.553Z,5.33
2023-04-26T02:33:36.339Z,5.40
2023-04-26T02:36:06.659Z,5.36
2023-04-26T02:38:35.309Z,5.32
2023-04-26T02:41:04.139Z,5.39
2023-04-26T02:43:31.127Z,5.37
2023-04-26T02:46:00.569Z,5.38
2023-04-26T02:48:27.307Z,5.42
2023-04-26T02:50:54.118Z,5.35
2023-04-26T02:53:21.015Z,5.32
2023-04-26T02:55:47.737Z,5.30
2023-04-26T02:58:14.497Z,5.26
2023-04-26T03:00:47.338Z,5.26
2023-04-26T03:03:14.884Z,5.22
2023-04-26T03:05:41.929Z,5.18
2023-04-26T03:08:09.242Z,5.17
2023-04-26T03:10:36.137Z,5.11
2023-04-26T03:13:03.987Z,5.06
2023-04-26T03:15:30.791Z,5.04
2023-04-26T03:18:01.095Z,4.96
2023-04-26T03:20:27.942Z,4.85
2023-04-26T03:22:54.779Z,4.81
2023-04-26T03:25:21.580Z,4.85
2023-04-26T03:27:48.332Z,4.91
2023-04-26T03:30:15.597Z,4.93
2023-04-26T03:32:42.612Z,4.93
2023-04-26T03:35:10.490Z,4.90
2023-04-26T03:37:40.018Z,4.95
2023-04-26T03:40:10.095Z,4.83
2023-04-26T03:42:37.721Z,4.83
2023-04-26T03:45:05.169Z,4.82
2023-04-26T03:47:32.052Z,4.74
2023-04-26T03:50:00.141Z,4.75
2023-04-26T03:52:26.949Z,4.75
2023-04-26T03:54:53.718Z,4.73
2023-04-26T03:57:21.704Z,4.81
2023-04-26T03:59:48.423Z,4.75
2023-04-26T04:02:17.294Z,4.71
2023-04-26T04:04:44.324Z,4.69
2023-04-26T04:07:11.458Z,4.63
2023-04-26T04:09:38.157Z,4.59
2023-04-26T04:12:05.034Z,4.62
2023-04-26T04:14:32.814Z,4.64
2023-04-26T04:16:59.829Z,4.59
2023-04-26T04:19:35.604Z,4.57
2023-04-26T04:22:02.313Z,4.47
2023-04-26T04:24:29.788Z,4.52
2023-04-26T04:26:56.486Z,4.56
2023-04-26T04:29:23.380Z,4.63
2023-04-26T04:31:50.054Z,4.63
2023-04-26T04:34:16.700Z,4.68
2023-04-26T04:36:43.453Z,4.63
2023-04-26T04:39:13.864Z,4.64
2023-04-26T04:41:47.603Z,4.68
2023-04-26T04:44:16.369Z,4.65
2023-04-26T04:46:43.747Z,4.67
2023-04-26T04:49:12.671Z,4.69
2023-04-26T04:51:39.735Z,4.73
2023-04-26T04:54:18.233Z,4.65
2023-04-26T04:56:45.391Z,4.68
2023-04-26T04:59:12.165Z,4.75
2023-04-26T05:01:38.941Z,4.89
2023-04-26T05:04:07.002Z,5.06
2023-04-26T05:06:34.071Z,5.10
2023-04-26T05:09:01.637Z,5.10
2023-04-26T05:11:28.524Z,5.03
2023-04-26T05:13:55.489Z,4.92
2023-04-26T05:16:22.587Z,5.04
2023-04-26T05:18:49.434Z,5.03
2023-04-26T05:21:16.521Z,5.05
2023-04-26T05:23:43.326Z,4.95
2023-04-26T05:26:16.786Z,5.05
2023-04-26T05:28:43.593Z,5.10
2023-04-26T05:31:11.592Z,5.28
2023-04-26T05:33:38.638Z,5.16
2023-04-26T05:36:05.878Z,5.17
2023-04-26T05:38:32.558Z,5.12
2023-04-26T05:40:59.301Z,5.04
2023-04-26T05:43:26.560Z,5.03
2023-04-26T05:45:54.488Z,5.07
2023-04-26T05:48:22.333Z,5.22
2023-04-26T05:50:50.162Z,5.25
2023-04-26T05:53:17.161Z,5.26
2023-04-26T05:55:43.957Z,5.33
2023-04-26T05:58:10.929Z,5.32
2023-04-26T06:00:38.853Z,5.25
2023-04-26T06:03:06.213Z,5.14
2023-04-26T06:05:33.329Z,5.08
2023-04-26T06:08:01.614Z,5.22
2023-04-26T06:10:28.411Z,5.26
2023-04-26T06:12:55.130Z,5.15
2023-04-26T06:15:22.084Z,5.14
2023-04-26T06:17:48.841Z,5.14
2023-04-26T06:20:16.390Z,5.26
2023-04-26T06:22:43.372Z,5.23
2023-04-26T06:25:10.156Z,5.22
2023-04-26T06:27:36.894Z,5.19
2023-04-26T06:30:03.857Z,5.24
2023-04-26T06:32:30.613Z,5.17
2023-04-26T06:34:57.329Z,5.38
2023-04-26T06:37:24.010Z,5.38
2023-04-26T06:39:50.845Z,5.52
2023-04-26T06:42:18.019Z,5.62
2023-04-26T06:44:44.762Z,5.64
2023-04-26T06:47:11.634Z,5.51
2023-04-26T06:49:38.438Z,5.32
2023-04-26T06:52:08.632Z,5.59
2023-04-26T06:54:39.827Z,5.83
2023-04-26T06:57:09.494Z,5.84
2023-04-26T06:59:36.718Z,5.89
2023-04-26T07:02:03.529Z,5.94
2023-04-26T07:04:30.431Z,5.86
2023-04-26T07:06:57.947Z,5.79
2023-04-26T07:09:24.699Z,5.96
2023-04-26T07:11:51.466Z,5.96
2023-04-26T07:14:18.223Z,5.92
2023-04-26T07:16:45.243Z,6.00
2023-04-26T07:19:11.970Z,6.07
2023-04-26T07:21:38.749Z,6.19
2023-04-26T07:24:06.432Z,6.27
2023-04-26T07:26:33.223Z,6.23
2023-04-26T07:29:01.130Z,6.31
2023-04-26T07:31:27.877Z,6.39
2023-04-26T07:33:55.009Z,6.64
2023-04-26T07:36:23.846Z,6.65
2023-04-26T07:38:52.142Z,6.52
2023-04-26T07:41:18.903Z,6.73
2023-04-26T07:43:45.629Z,6.88
2023-04-26T07:46:12.504Z,7.20
2023-04-26T07:48:39.270Z,7.33
2023-04-26T07:51:11.460Z,7.44
2023-04-26T07:53:39.204Z,7.41
2023-04-26T07:56:09.882Z,7.57
2023-04-26T07:58:39.353Z,7.30
2023-04-26T08:01:06.336Z,7.10
2023-04-26T08:03:33.465Z,7.14
2023-04-26T08:06:00.834Z,7.05
2023-04-26T08:08:28.150Z,7.14
2023-04-26T08:10:55.846Z,7.22
2023-04-26T08:13:23.002Z,6.99
2023-04-26T08:15:49.776Z,6.93
2023-04-26T08:18:16.672Z,7.07
2023-04-26T08:20:43.834Z,6.93
2023-04-26T08:23:10.890Z,7.05
2023-04-26T08:25:37.696Z,7.13
2023-04-26T08:28:05.249Z,7.10
2023-04-26T08:30:32.194Z,7.29
2023-04-26T08:32:58.856Z,7.28
2023-04-26T08:35:25.798Z,6.96
2023-04-26T08:37:52.623Z,6.86
2023-04-26T08:40:27.152Z,6.91
2023-04-26T08:42:54.080Z,6.82
2023-04-26T08:45:21.765Z,6.82
2023-04-26T08:47:51.237Z,6.79
2023-04-26T08:50:22.901Z,6.94
2023-04-26T08:52:51.587Z,7.09
2023-04-26T08:55:20.401Z,6.94
2023-04-26T08:57:49.314Z,6.86
2023-04-26T09:00:20.532Z,6.87
2023-04-26T09:02:50.076Z,6.69
2023-04-26T09:05:17.227Z,6.91
2023-04-26T09:07:47.676Z,6.95
2023-04-26T09:10:19.554Z,7.01
2023-04-26T09:12:46.435Z,6.97
2023-04-26T09:15:14.778Z,7.37
2023-04-26T09:17:42.113Z,7.77
2023-04-26T09:20:24.565Z,7.86
2023-04-26T09:23:04.009Z,7.88
2023-04-26T09:25:32.014Z,7.26
2023-04-26T09:27:59.707Z,6.92
2023-04-26T09:30:27.468Z,7.03
2023-04-26T09:33:04.109Z,6.94
2023-04-26T09:35:34.626Z,7.20
2023-04-26T09:38:09.617Z,7.05
2023-04-26T09:40:45.486Z,7.16
2023-04-26T09:43:19.798Z,7.69
2023-04-26T09:45:58.023Z,8.07
2023-04-26T09:48:27.003Z,8.25
2023-04-26T09:50:55.434Z,8.40
2023-04-26T09:53:31.227Z,7.88
2023-04-26T09:56:09.892Z,8.04
2023-04-26T09:58:38.307Z,8.30
2023-04-26T10:01:06.996Z,8.20
2023-04-26T10:03:37.951Z,8.19
2023-04-26T10:06:05.916Z,8.59
2023-04-26T10:08:33.510Z,8.72
2023-04-26T10:11:02.336Z,9.14
2023-04-26T10:13:29.542Z,8.74
2023-04-26T10:15:56.689Z,8.72
2023-04-26T10:18:23.462Z,8.86
2023-04-26T10:20:53.208Z,8.84
2023-04-26T10:23:21.481Z,9.62
2023-04-26T10:25:48.853Z,9.43
2023-04-26T10:28:16.339Z,9.69
2023-04-26T10:30:57.411Z,9.67
2023-04-26T10:33:25.307Z,9.70
2023-04-26T10:36:14.392Z,10.03
2023-04-26T10:39:22.003Z,9.94
2023-04-26T10:41:49.018Z,9.70
2023-04-26T10:44:38.086Z,10.23
2023-04-26T10:47:06.767Z,10.23
2023-04-26T10:49:48.235Z,10.22
2023-04-26T10:52:16.979Z,10.24
2023-04-26T10:54:56.490Z,10.07
2023-04-26T10:57:25.020Z,10.31
2023-04-26T11:00:17.176Z,10.71
2023-04-26T11:02:52.507Z,10.97
2023-04-26T11:05:58.123Z,10.41
2023-04-26T11:08:35.743Z,10.20
2023-04-26T11:11:02.391Z,10.17
2023-04-26T11:13:42.551Z,9.40
2023-04-26T11:16:13.791Z,9.95
2023-04-26T11:18:42.651Z,10.17
2023-04-26T11:21:09.864Z,10.45
2023-04-26T11:23:36.798Z,10.59
2023-04-26T11:26:05.695Z,10.88
2023-04-26T11:28:34.514Z,10.97
2023-04-26T11:31:02.117Z,10.75
2023-04-26T11:33:29.005Z,11.03
2023-04-26T11:35:57.212Z,10.68
2023-04-26T11:38:28.534Z,10.60
2023-04-26T11:41:00.434Z,10.74
2023-04-26T11:43:34.570Z,11.06
2023-04-26T11:46:02.069Z,11.32
2023-04-26T11:48:30.279Z,10.66
2023-04-26T11:50:59.106Z,10.72
2023-04-26T11:53:26.368Z,11.16
2023-04-26T11:55:53.308Z,11.44
2023-04-26T11:58:20.445Z,11.60
2023-04-26T12:01:01.996Z,11.75
2023-04-26T12:03:37.931Z,12.18
2023-04-26T12:06:05.180Z,11.85
2023-04-26T12:08:33.485Z,11.98
2023-04-26T12:11:04.023Z,11.77
2023-04-26T12:13:30.933Z,11.55
2023-04-26T12:15:57.856Z,11.88
2023-04-26T12:18:31.190Z,11.45
2023-04-26T12:20:59.803Z,11.47
2023-04-26T12:23:26.786Z,11.51
2023-04-26T12:26:00.588Z,11.60
2023-04-26T12:28:30.399Z,11.51
2023-04-26T12:30:58.548Z,11.57
2023-04-26T12:33:29.129Z,11.57
2023-04-26T12:35:58.222Z,11.86
2023-04-26T12:41:47.952Z,12.25
2023-04-26T12:44:16.549Z,12.83
2023-04-26T12:46:45.434Z,12.79
2023-04-26T12:49:15.403Z,13.16
2023-04-26T12:51:44.383Z,13.30
2023-04-26T12:54:11.944Z,12.88
2023-04-26T12:56:45.810Z,12.34
2023-04-26T12:59:12.756Z,12.43
2023-04-26T13:01:39.734Z,12.39
2023-04-26T13:04:07.033Z,12.35
2023-04-26T13:06:34.478Z,12.25
2023-04-26T13:09:01.952Z,11.87
2023-04-26T13:11:28.855Z,12.44
2023-04-26T13:13:55.647Z,12.70
2023-04-26T13:16:22.559Z,12.64
2023-04-26T13:18:49.339Z,12.55
2023-04-26T13:21:16.075Z,12.27
2023-04-26T13:23:42.992Z,11.96
2023-04-26T13:26:09.779Z,11.95
2023-04-26T13:28:36.938Z,11.55
2023-04-26T13:31:03.787Z,12.00
2023-04-26T13:33:30.777Z,11.84
2023-04-26T13:35:57.515Z,12.00
2023-04-26T13:38:24.483Z,11.58
2023-04-26T13:40:52.271Z,11.19
2023-04-26T13:43:19.151Z,11.73
2023-04-26T13:45:45.999Z,11.58
2023-04-26T13:48:13.202Z,11.38
2023-04-26T13:50:40.124Z,11.49
2023-04-26T13:53:07.108Z,11.41
2023-04-26T13:55:33.870Z,11.49
2023-04-26T13:58:01.015Z,11.49
2023-04-26T14:00:28.402Z,11.24
2023-04-26T14:02:55.313Z,11.52
2023-04-26T14:05:23.868Z,11.39
2023-04-26T14:07:52.960Z,11.67
2023-04-26T14:10:21.083Z,11.55
2023-04-26T14:12:47.855Z,11.50
2023-04-26T14:15:15.231Z,11.32
2023-04-26T14:17:42.268Z,11.24
2023-04-26T14:20:10.582Z,11.06
2023-04-26T14:22:37.596Z,11.13
2023-04-26T14:25:04.776Z,10.91
2023-04-26T14:27:31.860Z,11.47
2023-04-26T14:29:58.562Z,11.38
2023-04-26T14:32:25.430Z,11.79
2023-04-26T14:34:52.153Z,11.55
2023-04-26T14:37:22.803Z,11.77
2023-04-26T14:39:50.788Z,11.87
2023-04-26T14:42:17.756Z,12.25
2023-04-26T14:44:46.544Z,12.08
2023-04-26T14:47:13.531Z,11.96
2023-04-26T14:49:40.321Z,12.31
2023-04-26T14:52:07.117Z,12.40
2023-04-26T14:54:42.751Z,12.49
2023-04-26T14:57:10.546Z,12.57
2023-04-26T14:59:37.454Z,12.73
2023-04-26T15:02:05.048Z,12.17
2023-04-26T15:04:32.386Z,12.26
2023-04-26T15:06:59.270Z,11.91
2023-04-26T15:09:26.491Z,12.08
2023-04-26T15:11:54.388Z,12.24
2023-04-26T15:14:21.255Z,12.34
2023-04-26T15:16:48.292Z,12.53
2023-04-26T15:19:15.137Z,12.72
2023-04-26T15:21:42.533Z,13.04
2023-04-26T15:24:09.339Z,12.59
2023-04-26T15:26:36.128Z,12.91
2023-04-26T15:29:02.836Z,12.65
2023-04-26T15:31:29.661Z,12.61
2023-04-26T15:33:59.600Z,12.32
2023-04-26T15:36:26.434Z,12.37
2023-04-26T15:38:53.313Z,12.06
2023-04-26T15:41:20.384Z,11.66
2023-04-26T15:43:47.140Z,11.65
2023-04-26T15:46:15.154Z,11.72
2023-04-26T15:48:41.971Z,11.74
2023-04-26T15:51:08.715Z,11.68
2023-04-26T15:53:37.578Z,11.58
2023-04-26T15:56:18.295Z,11.51
2023-04-26T15:58:48.613Z,11.41
2023-04-26T16:01:15.525Z,11.55
2023-04-26T16:03:45.722Z,11.41
2023-04-26T16:06:14.349Z,11.47
2023-04-26T16:08:41.472Z,11.47
2023-04-26T16:11:08.319Z,11.33
2023-04-26T16:13:35.140Z,11.37
2023-04-26T16:16:01.899Z,11.64
2023-04-26T16:18:28.686Z,11.44
2023-04-26T16:21:03.727Z,11.31
2023-04-26T16:23:31.600Z,11.38
2023-04-26T16:25:58.417Z,11.06
2023-04-26T16:28:25.129Z,11.04
2023-04-26T16:30:51.900Z,11.07
2023-04-26T16:33:21.196Z,11.16
2023-04-26T16:35:52.919Z,10.92
2023-04-26T16:38:19.956Z,11.02
2023-04-26T16:40:59.630Z,10.83
2023-04-26T16:43:30.185Z,10.74
2023-04-26T16:46:01.531Z,10.80
2023-04-26T16:48:30.633Z,10.84
2023-04-26T16:50:57.391Z,10.63
2023-04-26T16:53:24.116Z,10.42
2023-04-26T16:55:51.324Z,10.46
2023-04-26T16:58:18.225Z,10.24
2023-04-26T17:00:45.575Z,10.27
2023-04-26T17:03:12.675Z,10.04
2023-04-26T17:05:40.923Z,10.05
2023-04-26T17:08:07.962Z,10.05
2023-04-26T17:10:36.669Z,10.01
2023-04-26T17:13:04.710Z,9.95
2023-04-26T17:15:33.789Z,9.67
2023-04-26T17:18:01.690Z,9.62
2023-04-26T17:20:29.165Z,9.65
2023-04-26T17:22:56.972Z,9.45
2023-04-26T17:25:24.822Z,9.57
2023-04-26T17:27:52.572Z,9.57
2023-04-26T17:30:20.221Z,9.52
2023-04-26T17:32:46.971Z,9.51
2023-04-26T17:35:13.987Z,9.43
2023-04-26T17:37:42.132Z,9.25
2023-04-26T17:40:10.147Z,9.15
2023-04-26T17:42:36.857Z,9.15
2023-04-26T17:45:05.429Z,9.20
2023-04-26T17:47:32.268Z,8.98
2023-04-26T17:49:59.479Z,8.89
2023-04-26T17:52:26.939Z,8.92
2023-04-26T17:54:54.714Z,8.86
2023-04-26T17:57:23.835Z,8.74
2023-04-26T17:59:52.169Z,8.71
2023-04-26T18:02:19.508Z,8.64
2023-04-26T18:04:49.671Z,8.59
2023-04-26T18:07:16.838Z,8.45
2023-04-26T18:09:43.697Z,8.52
2023-04-26T18:12:10.773Z,8.14
2023-04-26T18:14:44.390Z,8.26
2023-04-26T18:17:15.360Z,8.29
2023-04-26T18:19:42.667Z,8.23
2023-04-26T18:22:09.627Z,8.18
2023-04-26T18:24:36.703Z,8.27
2023-04-26T18:27:03.660Z,8.08
2023-04-26T18:29:30.619Z,7.82
2023-04-26T18:31:57.508Z,7.77
2023-04-26T18:34:24.539Z,7.79
2023-04-26T18:36:51.588Z,7.62
2023-04-26T18:39:18.512Z,7.73
2023-04-26T18:41:45.579Z,7.62
2023-04-26T18:44:15.439Z,7.68
2023-04-26T18:46:43.220Z,7.69
2023-04-26T18:49:10.240Z,7.70
2023-04-26T18:51:37.212Z,7.76
2023-04-26T18:54:04.114Z,7.67
2023-04-26T18:56:31.590Z,7.60
2023-04-26T18:58:58.371Z,7.63
2023-04-26T19:01:25.151Z,7.44
2023-04-26T19:03:52.160Z,7.44
2023-04-26T19:06:19.134Z,7.35
2023-04-26T19:08:45.873Z,7.23
2023-04-26T19:11:12.943Z,7.20
2023-04-26T19:13:40.401Z,7.18
2023-04-26T19:16:07.971Z,7.07
2023-04-26T19:18:37.287Z,7.31
2023-04-26T19:21:08.130Z,7.24
2023-04-26T19:23:35.505Z,7.26
2023-04-26T19:26:04.438Z,7.28
2023-04-26T19:28:31.497Z,7.38
2023-04-26T19:30:58.759Z,7.28
2023-04-26T19:33:25.759Z,7.24
2023-04-26T19:35:52.525Z,7.06
2023-04-26T19:38:19.604Z,7.10
2023-04-26T19:40:46.395Z,7.07
2023-04-26T19:43:13.211Z,6.96
2023-04-26T19:45:41.165Z,6.95
2023-04-26T19:48:11.146Z,6.97
2023-04-26T19:50:41.812Z,6.88
2023-04-26T19:53:09.914Z,6.76
2023-04-26T19:55:38.059Z,6.79
2023-04-26T19:58:05.510Z,6.84
2023-04-26T20:00:35.665Z,6.85
2023-04-26T20:03:03.114Z,6.87
2023-04-26T20:05:30.192Z,6.92
2023-04-26T20:07:57.572Z,6.79
2023-04-26T20:10:24.360Z,6.84
2023-04-26T20:12:51.961Z,6.88
2023-04-26T20:15:19.301Z,6.76
2023-04-26T20:17:46.240Z,6.70
2023-04-26T20:20:13.320Z,6.62
2023-04-26T20:22:40.553Z,6.64
2023-04-26T20:25:07.905Z,6.55
2023-04-26T20:27:34.646Z,6.49
2023-04-26T20:30:01.436Z,6.48
2023-04-26T20:32:28.274Z,6.40
2023-04-26T20:34:55.280Z,6.38
2023-04-26T20:37:22.093Z,6.50
2023-04-26T20:39:49.126Z,6.44
2023-04-26T20:42:16.235Z,6.40
2023-04-26T20:44:43.307Z,6.35
2023-04-26T20:47:10.092Z,6.39
2023-04-26T20:49:36.804Z,6.36
2023-04-26T20:52:03.781Z,6.33
2023-04-26T20:54:30.501Z,6.25
2023-04-26T20:56:57.283Z,6.27
2023-04-26T20:59:25.143Z,6.24
2023-04-26T21:01:53.240Z,6.22
2023-04-26T21:04:20.168Z,6.24
2023-04-26T21:06:47.407Z,6.07
2023-04-26T21:09:14.137Z,6.21
2023-04-26T21:11:40.909Z,6.14
2023-04-26T21:14:07.555Z,6.03
2023-04-26T21:16:34.127Z,6.19
2023-04-26T21:19:00.808Z,6.04
2023-04-26T21:21:28.713Z,5.98
2023-04-26T21:23:55.624Z,5.97
2023-04-26T21:26:22.279Z,6.01
2023-04-26T21:28:48.876Z,6.08
2023-04-26T21:31:15.863Z,6.11
2023-04-26T21:33:42.548Z,6.10
2023-04-26T21:36:09.383Z,6.07
2023-04-26T21:38:36.049Z,5.97
2023-04-26T21:41:02.660Z,5.95
2023-04-26T21:43:29.321Z,6.02
2023-04-26T21:45:57.846Z,5.79
2023-04-26T21:48:26.196Z,5.94
2023-04-26T21:50:53.025Z,5.90
2023-04-26T21:53:19.760Z,5.89
2023-04-26T21:55:53.077Z,5.78
2023-04-26T21:58:20.750Z,5.87
2023-04-26T22:00:47.663Z,5.80
2023-04-26T22:03:14.744Z,5.86
2023-04-26T22:05:41.699Z,5.91
2023-04-26T22:08:08.338Z,5.86
2023-04-26T22:10:35.597Z,5.79
2023-04-26T22:13:02.628Z,5.80
2023-04-26T22:15:29.448Z,5.77
2023-04-26T22:17:56.213Z,5.79
2023-04-26T22:20:23.130Z,5.75
2023-04-26T22:22:49.762Z,5.61
2023-04-26T22:25:16.446Z,5.61
2023-04-26T22:27:43.143Z,5.63
2023-04-26T22:30:23.795Z,5.71
2023-04-26T22:32:53.792Z,5.63
2023-04-26T22:35:20.910Z,5.34
2023-04-26T22:37:47.946Z,5.41
2023-04-26T22:40:15.237Z,5.46
2023-04-26T22:42:42.766Z,5.41
2023-04-26T22:45:10.787Z,5.38
2023-04-26T22:47:37.575Z,5.49
2023-04-26T22:50:04.896Z,5.47
2023-04-26T22:52:32.224Z,5.36
2023-04-26T22:55:00.009Z,5.41
2023-04-26T22:57:27.102Z,5.35
2023-04-26T22:59:53.665Z,5.43
2023-04-26T23:02:21.009Z,5.37
2023-04-26T23:04:47.909Z,5.35
2023-04-26T23:07:14.686Z,5.32
2023-04-26T23:09:41.623Z,5.22
2023-04-26T23:12:08.429Z,5.36
2023-04-26T23:14:35.346Z,5.30
2023-04-26T23:17:02.973Z,5.20
2023-04-26T23:19:29.819Z,5.11
2023-04-26T23:21:56.577Z,5.21
2023-04-26T23:24:23.348Z,5.23
2023-04-26T23:26:50.200Z,5.30
2023-04-26T23:29:16.881Z,5.20
2023-04-26T23:31:43.888Z,5.19
2023-04-26T23:34:10.684Z,5.20
2023-04-26T23:36:37.460Z,5.28
2023-04-26T23:39:04.144Z,5.24
2023-04-26T23:41:31.225Z,5.21
2023-04-26T23:43:58.048Z,5.08
2023-04-26T23:46:24.884Z,5.17
2023-04-26T23:48:51.565Z,5.11
2023-04-26T23:51:18.305Z,5.14
2023-04-26T23:53:45.035Z,5.05
2023-04-26T23:56:11.808Z,5.15
2023-04-26T23:58:38.604Z,5.13
